createdAt,value
2019-03-04T00:01:53.298Z,11.20
2019-03-04T00:04:23.509Z,11.20
2019-03-04T00:06:53.791Z,11.20
2019-03-04T00:09:24.114Z,11.20
2019-03-04T00:11:54.543Z,11.30
2019-03-04T00:14:24.806Z,11.30
2019-03-04T00:16:55.242Z,11.30
2019-03-04T00:19:25.546Z,11.30
2019-03-04T00:21:55.764Z,11.30
2019-03-04T00:24:25.920Z,11.30
2019-03-04T00:26:56.122Z,11.30
2019-03-04T00:29:26.355Z,11.20
2019-03-04T00:31:56.532Z,11.20
2019-03-04T00:34:26.760Z,11.10
2019-03-04T00:36:57.046Z,11.10
2019-03-04T00:39:27.325Z,11.10
2019-03-04T00:41:57.602Z,11.10
2019-03-04T00:44:27.745Z,11.20
2019-03-04T00:46:58.945Z,11.10
2019-03-04T00:49:29.152Z,11.10
2019-03-04T00:51:59.401Z,11.10
2019-03-04T00:54:29.561Z,11.10
2019-03-04T00:56:59.791Z,11.00
2019-03-04T00:59:31.415Z,11.10
2019-03-04T01:02:01.810Z,11.10
2019-03-04T01:04:32.206Z,11.20
2019-03-04T01:07:02.654Z,11.10
2019-03-04T01:09:32.929Z,11.10
2019-03-04T01:12:03.149Z,11.00
2019-03-04T01:14:33.409Z,11.00
2019-03-04T01:17:03.813Z,11.00
2019-03-04T01:19:34.234Z,10.90
2019-03-04T01:22:04.561Z,10.90
2019-03-04T01:24:34.688Z,10.80
2019-03-04T01:27:05.106Z,10.80
2019-03-04T01:29:35.501Z,10.90
2019-03-04T01:32:05.779Z,10.90
2019-03-04T01:34:35.938Z,10.90
2019-03-04T01:37:06.249Z,11.00
2019-03-04T01:39:36.502Z,11.00
2019-03-04T01:42:06.870Z,11.10
2019-03-04T01:44:37.220Z,11.10
2019-03-04T01:47:07.475Z,11.10
2019-03-04T01:49:37.648Z,11.10
2019-03-04T01:52:07.928Z,11.10
2019-03-04T01:54:38.359Z,11.10
2019-03-04T01:57:08.520Z,11.10
2019-03-04T01:59:38.822Z,11.20
2019-03-04T02:02:09.204Z,11.20
2019-03-04T02:04:39.350Z,11.20
2019-03-04T02:07:09.761Z,11.20
2019-03-04T02:09:40.043Z,11.20
2019-03-04T02:12:10.644Z,11.20
2019-03-04T02:14:40.926Z,11.20
2019-03-04T02:17:11.251Z,11.30
2019-03-04T02:19:41.540Z,11.20
2019-03-04T02:22:11.784Z,11.20
2019-03-04T02:24:42.046Z,11.20
2019-03-04T02:27:12.485Z,11.20
2019-03-04T02:29:42.838Z,11.10
2019-03-04T02:32:13.136Z,11.10
2019-03-04T02:34:43.485Z,11.10
2019-03-04T02:37:13.861Z,11.20
2019-03-04T02:39:44.145Z,11.20
2019-03-04T02:42:14.476Z,11.20
2019-03-04T02:44:44.766Z,11.20
2019-03-04T02:47:15.140Z,11.20
2019-03-04T02:49:45.482Z,11.10
2019-03-04T02:52:15.698Z,11.10
2019-03-04T02:54:45.960Z,11.10
2019-03-04T02:57:16.079Z,11.10
2019-03-04T02:59:46.334Z,11.00
2019-03-04T03:02:16.812Z,11.00
2019-03-04T03:04:47.243Z,10.90
2019-03-04T03:07:17.767Z,10.80
2019-03-04T03:09:48.163Z,10.70
2019-03-04T03:12:18.471Z,10.70
2019-03-04T03:14:48.693Z,10.60
2019-03-04T03:17:18.927Z,10.60
2019-03-04T03:19:49.117Z,10.50
2019-03-04T03:22:19.552Z,10.60
2019-03-04T03:24:50.015Z,10.60
2019-03-04T03:27:20.302Z,10.70
2019-03-04T03:29:52.130Z,10.60
2019-03-04T03:32:22.649Z,10.50
2019-03-04T03:34:52.772Z,10.50
2019-03-04T03:37:23.068Z,10.50
2019-03-04T03:39:53.339Z,10.40
2019-03-04T03:42:23.735Z,10.30
2019-03-04T03:44:53.968Z,10.20
2019-03-04T03:47:24.142Z,10.20
2019-03-04T03:49:54.504Z,10.20
2019-03-04T03:52:24.783Z,10.20
2019-03-04T03:54:55.168Z,10.20
2019-03-04T03:57:25.576Z,10.20
2019-03-04T03:59:55.916Z,10.10
2019-03-04T04:02:26.251Z,10.00
2019-03-04T04:04:56.600Z,10.00
2019-03-04T04:07:26.752Z,10.10
2019-03-04T04:09:57.040Z,10.10
2019-03-04T04:12:27.382Z,10.10
2019-03-04T04:15:06.414Z,10.20
2019-03-04T04:17:36.811Z,10.20
2019-03-04T04:20:07.904Z,10.40
2019-03-04T04:22:38.554Z,10.40
2019-03-04T04:25:09.420Z,10.50
2019-03-04T04:27:39.928Z,10.60
2019-03-04T04:30:11.390Z,10.60
2019-03-04T04:32:41.851Z,10.60
2019-03-04T04:35:12.154Z,10.60
2019-03-04T04:37:42.724Z,10.60
2019-03-04T04:40:13.186Z,10.60
2019-03-04T04:42:43.591Z,10.70
2019-03-04T04:45:14.838Z,10.70
2019-03-04T04:47:45.249Z,10.70
2019-03-04T04:50:15.801Z,10.60
2019-03-04T04:52:45.996Z,10.70
2019-03-04T04:55:16.298Z,10.70
2019-03-04T04:57:46.810Z,10.70
2019-03-04T05:00:17.918Z,10.70
2019-03-04T05:02:48.222Z,10.70
2019-03-04T05:05:19.736Z,10.60
2019-03-04T05:07:50.009Z,10.60
2019-03-04T05:10:20.539Z,10.50
2019-03-04T05:12:50.916Z,10.50
2019-03-04T05:15:21.393Z,10.60
2019-03-04T05:17:51.753Z,10.60
2019-03-04T05:20:23.319Z,10.60
2019-03-04T05:22:53.958Z,10.50
2019-03-04T05:25:24.222Z,10.50
2019-03-04T05:27:54.542Z,10.40
2019-03-04T05:30:25.476Z,10.50
2019-03-04T05:32:55.634Z,10.40
2019-03-04T05:35:25.818Z,10.30
2019-03-04T05:37:56.308Z,10.30
2019-03-04T05:40:26.612Z,10.30
2019-03-04T05:42:56.870Z,10.20
2019-03-04T05:45:27.117Z,10.20
2019-03-04T05:47:57.434Z,10.20
2019-03-04T05:50:27.911Z,10.20
2019-03-04T05:52:58.122Z,10.20
2019-03-04T05:55:28.361Z,10.10
2019-03-04T05:57:58.556Z,10.20
2019-03-04T06:00:31.069Z,10.20
2019-03-04T06:03:01.617Z,10.20
2019-03-04T06:05:32.000Z,10.30
2019-03-04T06:08:03.774Z,10.30
2019-03-04T06:10:34.021Z,10.40
2019-03-04T06:13:04.520Z,10.40
2019-03-04T06:15:34.943Z,10.40
2019-03-04T06:18:05.348Z,10.50
2019-03-04T06:20:35.694Z,10.50
2019-03-04T06:23:06.004Z,10.60
2019-03-04T06:25:36.336Z,10.70
2019-03-04T06:28:06.647Z,10.80
2019-03-04T06:30:36.877Z,10.90
2019-03-04T06:33:07.093Z,10.90
2019-03-04T06:35:37.357Z,10.90
2019-03-04T06:38:07.588Z,11.00
2019-03-04T06:40:37.784Z,11.10
2019-03-04T06:43:08.064Z,11.20
2019-03-04T06:45:38.226Z,11.30
2019-03-04T06:48:08.442Z,11.40
2019-03-04T06:50:54.491Z,11.40
2019-03-04T06:54:20.670Z,11.40
2019-03-04T06:57:33.970Z,11.50
2019-03-04T07:00:51.568Z,11.50
2019-03-04T07:03:32.146Z,11.70
2019-03-04T07:06:02.456Z,11.80
2019-03-04T07:09:04.706Z,11.90
2019-03-04T07:11:35.322Z,12.00
2019-03-04T07:14:06.553Z,12.00
2019-03-04T07:16:36.827Z,11.90
2019-03-04T07:19:10.475Z,11.90
2019-03-04T07:21:40.982Z,11.90
2019-03-04T07:24:11.238Z,11.90
2019-03-04T07:26:42.116Z,11.80
2019-03-04T07:29:12.365Z,11.90
2019-03-04T07:31:42.664Z,11.90
2019-03-04T07:34:12.977Z,11.90
2019-03-04T07:36:43.239Z,12.00
2019-03-04T07:39:20.666Z,12.20
2019-03-04T07:41:56.343Z,12.50
2019-03-04T07:44:26.757Z,12.90
2019-03-04T07:46:57.107Z,13.20
2019-03-04T07:49:29.482Z,13.40
2019-03-04T07:51:59.858Z,13.50
2019-03-04T07:54:30.097Z,13.60
2019-03-04T07:57:00.474Z,13.60
2019-03-04T07:59:30.666Z,13.60
2019-03-04T08:02:00.834Z,13.60
2019-03-04T08:04:31.202Z,13.60
2019-03-04T08:07:45.564Z,13.50
2019-03-04T08:11:12.216Z,13.40
2019-03-04T08:13:54.677Z,13.30
2019-03-04T08:16:25.051Z,13.00
2019-03-04T08:18:55.273Z,12.80
2019-03-04T08:21:25.692Z,12.30
2019-03-04T08:23:56.025Z,12.00
2019-03-04T08:26:26.404Z,11.40
2019-03-04T08:28:58.702Z,11.10
2019-03-04T08:31:28.761Z,10.80
2019-03-04T08:33:59.065Z,10.70
2019-03-04T08:36:29.299Z,10.60
2019-03-04T08:38:59.531Z,10.60
2019-03-04T08:41:29.843Z,10.50
2019-03-04T08:44:00.065Z,10.20
2019-03-04T08:46:30.461Z,9.90
2019-03-04T08:49:00.671Z,9.80
2019-03-04T08:51:30.819Z,9.80
2019-03-04T08:54:01.040Z,9.80
2019-03-04T08:56:33.038Z,9.80
2019-03-04T08:59:03.182Z,9.80
2019-03-04T09:01:33.476Z,9.80
2019-03-04T09:04:03.830Z,9.90
2019-03-04T09:06:34.072Z,9.90
2019-03-04T09:09:06.162Z,10.10
2019-03-04T09:11:36.577Z,10.20
2019-03-04T09:14:07.086Z,10.40
2019-03-04T09:16:37.252Z,10.50
2019-03-04T09:19:07.693Z,10.70
2019-03-04T09:21:38.021Z,10.70
2019-03-04T09:24:08.304Z,10.60
2019-03-04T09:26:38.712Z,10.50
2019-03-04T09:29:08.915Z,10.50
2019-03-04T09:31:39.257Z,10.40
2019-03-04T09:34:09.534Z,10.40
2019-03-04T09:36:39.728Z,10.40
2019-03-04T09:39:15.563Z,10.50
2019-03-04T09:41:45.901Z,10.50
2019-03-04T09:44:16.173Z,10.60
2019-03-04T09:46:46.427Z,10.70
2019-03-04T09:49:16.631Z,10.80
2019-03-04T09:51:46.772Z,10.90
2019-03-04T09:54:16.901Z,11.00
2019-03-04T09:56:47.074Z,11.10
2019-03-04T09:59:17.440Z,11.10
2019-03-04T10:01:53.565Z,11.20
2019-03-04T10:05:42.004Z,11.40
2019-03-04T10:08:33.194Z,11.30
2019-03-04T10:11:49.749Z,11.50
2019-03-04T10:15:20.604Z,11.40
2019-03-04T10:18:39.067Z,11.30
2019-03-04T10:21:39.457Z,11.10
2019-03-04T10:24:46.889Z,11.10
2019-03-04T10:28:38.749Z,11.10
2019-03-04T10:32:00.481Z,11.00
2019-03-04T10:35:23.821Z,11.00
2019-03-04T10:38:43.430Z,10.90
2019-03-04T10:41:39.971Z,11.00
2019-03-04T10:45:00.720Z,10.90
2019-03-04T10:47:30.877Z,10.90
2019-03-04T10:50:01.073Z,10.80
2019-03-04T10:52:31.210Z,10.80
2019-03-04T10:55:01.355Z,10.80
2019-03-04T10:57:31.636Z,10.70
2019-03-04T11:00:01.730Z,10.60
2019-03-04T11:02:31.953Z,10.50
2019-03-04T11:05:02.200Z,10.50
2019-03-04T11:07:32.481Z,10.50
2019-03-04T11:10:02.747Z,10.50
2019-03-04T11:12:33.032Z,10.30
2019-03-04T11:15:03.416Z,10.30
2019-03-04T11:17:33.779Z,10.20
2019-03-04T11:20:04.098Z,10.30
2019-03-04T11:22:34.406Z,10.30
2019-03-04T11:25:05.065Z,10.30
2019-03-04T11:27:35.326Z,10.30
2019-03-04T11:30:06.482Z,10.30
2019-03-04T11:32:36.795Z,10.30
2019-03-04T11:35:07.679Z,10.30
2019-03-04T11:37:38.049Z,10.20
2019-03-04T11:40:25.990Z,10.20
2019-03-04T11:42:56.304Z,10.20
2019-03-04T11:45:26.605Z,10.20
2019-03-04T11:47:58.057Z,10.20
2019-03-04T11:50:28.426Z,10.20
2019-03-04T11:52:58.637Z,10.30
2019-03-04T11:55:29.755Z,10.30
2019-03-04T11:58:00.026Z,10.30
2019-03-04T12:00:39.200Z,10.30
2019-03-04T12:03:10.575Z,10.30
2019-03-04T12:05:40.935Z,10.30
2019-03-04T12:08:11.220Z,10.40
2019-03-04T12:10:41.472Z,10.40
2019-03-04T12:13:11.883Z,10.30
2019-03-04T12:15:42.302Z,10.30
2019-03-04T12:18:12.692Z,10.20
2019-03-04T12:20:43.034Z,10.20
2019-03-04T12:23:13.330Z,10.20
2019-03-04T12:25:43.874Z,10.10
2019-03-04T12:28:14.417Z,10.10
2019-03-04T12:30:44.813Z,10.10
2019-03-04T12:33:15.115Z,10.10
2019-03-04T12:35:45.558Z,10.10
2019-03-04T12:38:15.887Z,10.10
2019-03-04T12:40:46.341Z,10.20
2019-03-04T12:43:16.496Z,10.20
2019-03-04T12:45:46.813Z,10.30
2019-03-04T12:48:17.266Z,10.40
2019-03-04T12:50:47.571Z,10.50
2019-03-04T12:53:17.872Z,10.60
2019-03-04T12:55:48.249Z,10.60
2019-03-04T12:58:18.596Z,10.60
2019-03-04T13:00:49.014Z,10.60
2019-03-04T13:03:24.256Z,10.70
2019-03-04T13:05:54.643Z,10.80
2019-03-04T13:08:24.975Z,10.90
2019-03-04T13:10:55.233Z,11.00
2019-03-04T13:13:25.581Z,11.00
2019-03-04T13:15:57.051Z,11.00
2019-03-04T13:18:27.296Z,11.00
2019-03-04T13:20:57.584Z,11.00
2019-03-04T13:23:28.003Z,11.10
2019-03-04T13:25:58.366Z,11.20
2019-03-04T13:28:28.668Z,11.30
2019-03-04T13:30:59.061Z,11.30
2019-03-04T13:33:29.505Z,11.40
2019-03-04T13:36:00.367Z,11.40
2019-03-04T13:38:30.646Z,11.50
2019-03-04T13:41:01.041Z,11.60
2019-03-04T13:43:31.196Z,11.70
2019-03-04T13:46:01.647Z,11.70
2019-03-04T13:48:31.953Z,11.90
2019-03-04T13:51:02.336Z,12.00
2019-03-04T13:53:32.719Z,12.10
2019-03-04T13:56:03.008Z,12.20
2019-03-04T13:58:33.383Z,12.20
2019-03-04T14:01:03.777Z,12.30
2019-03-04T14:03:33.989Z,12.40
2019-03-04T14:06:04.415Z,12.70
2019-03-04T14:08:34.781Z,12.90
2019-03-04T14:11:07.898Z,13.00
2019-03-04T14:13:38.280Z,13.00
2019-03-04T14:16:09.645Z,12.90
2019-03-04T14:18:39.880Z,12.80
2019-03-04T14:21:10.362Z,12.70
2019-03-04T14:23:40.765Z,12.70
2019-03-04T14:26:11.154Z,12.70
2019-03-04T14:28:41.393Z,12.60
2019-03-04T14:31:11.724Z,12.50
2019-03-04T14:33:41.927Z,12.50
2019-03-04T14:36:12.197Z,12.60
2019-03-04T14:38:43.924Z,12.60
2019-03-04T14:41:14.291Z,12.50
2019-03-04T14:43:44.461Z,12.40
2019-03-04T14:46:27.701Z,12.30
2019-03-04T14:48:58.052Z,12.20
2019-03-04T14:51:28.434Z,12.20
2019-03-04T14:53:58.654Z,12.30
2019-03-04T14:56:28.875Z,12.30
2019-03-04T14:59:10.281Z,12.40
2019-03-04T15:01:31.265Z,12.40
2019-03-04T15:04:01.590Z,12.30
2019-03-04T15:06:32.026Z,12.20
2019-03-04T15:09:02.552Z,12.00
2019-03-04T15:11:33.196Z,11.80
2019-03-04T15:14:03.428Z,11.70
2019-03-04T15:16:33.693Z,11.60
2019-03-04T15:19:04.143Z,11.50
2019-03-04T15:21:34.539Z,11.50
2019-03-04T15:24:05.035Z,11.30
2019-03-04T15:26:41.977Z,11.20
2019-03-04T15:29:07.543Z,11.10
2019-03-04T15:31:37.897Z,10.90
2019-03-04T15:34:08.268Z,10.80
2019-03-04T15:36:38.691Z,10.70
2019-03-04T15:39:22.603Z,10.60
2019-03-04T15:41:47.756Z,10.50
2019-03-04T15:44:18.059Z,10.30
2019-03-04T15:46:48.512Z,9.70
2019-03-04T15:49:18.732Z,9.20
2019-03-04T15:51:49.099Z,8.50
2019-03-04T15:54:19.473Z,7.90
2019-03-04T15:56:49.862Z,7.40
2019-03-04T15:59:20.259Z,7.10
2019-03-04T16:01:50.638Z,6.70
2019-03-04T16:04:21.101Z,6.50
2019-03-04T16:06:51.364Z,6.50
2019-03-04T16:09:23.627Z,6.50
2019-03-04T16:11:53.853Z,6.60
2019-03-04T16:14:24.203Z,6.60
2019-03-04T16:16:54.486Z,6.60
2019-03-04T16:19:24.874Z,6.60
2019-03-04T16:21:55.188Z,6.50
2019-03-04T16:24:25.611Z,6.40
2019-03-04T16:26:55.825Z,6.30
2019-03-04T16:29:26.040Z,6.20
2019-03-04T16:31:56.275Z,6.20
2019-03-04T16:34:26.593Z,6.10
2019-03-04T16:36:56.841Z,6.10
2019-03-04T16:39:27.593Z,6.10
2019-03-04T16:41:57.692Z,6.10
2019-03-04T16:44:27.956Z,6.10
2019-03-04T16:46:58.216Z,6.00
2019-03-04T16:49:28.371Z,5.90
2019-03-04T16:51:58.650Z,5.90
2019-03-04T16:54:29.074Z,6.00
2019-03-04T16:56:59.294Z,6.00
2019-03-04T16:59:29.461Z,6.00
2019-03-04T17:01:59.668Z,6.10
2019-03-04T17:04:29.978Z,6.10
2019-03-04T17:07:00.257Z,6.00
2019-03-04T17:09:30.652Z,6.00
2019-03-04T17:12:01.010Z,5.90
2019-03-04T17:14:31.345Z,5.90
2019-03-04T17:17:01.712Z,5.90
2019-03-04T17:19:32.019Z,5.80
2019-03-04T17:22:02.364Z,5.80
2019-03-04T17:24:32.902Z,5.90
2019-03-04T17:27:03.292Z,5.90
2019-03-04T17:29:33.454Z,5.90
2019-03-04T17:32:05.244Z,5.90
2019-03-04T17:34:35.631Z,5.90
2019-03-04T17:37:06.128Z,5.90
2019-03-04T17:39:36.421Z,6.00
2019-03-04T17:42:07.052Z,5.90
2019-03-04T17:44:37.433Z,5.90
2019-03-04T17:47:07.766Z,5.80
2019-03-04T17:49:38.271Z,5.70
2019-03-04T17:52:08.764Z,5.70
2019-03-04T17:54:39.080Z,5.70
2019-03-04T17:57:09.578Z,5.70
2019-03-04T17:59:39.877Z,5.70
2019-03-04T18:02:10.221Z,5.60
2019-03-04T18:04:40.381Z,5.60
2019-03-04T18:07:10.879Z,5.60
2019-03-04T18:09:41.126Z,5.60
2019-03-04T18:12:11.361Z,5.60
2019-03-04T18:14:41.610Z,5.60
2019-03-04T18:17:12.013Z,5.60
2019-03-04T18:19:42.250Z,5.60
2019-03-04T18:22:12.461Z,5.50
2019-03-04T18:24:42.591Z,5.40
2019-03-04T18:27:27.763Z,5.30
2019-03-04T18:31:03.676Z,5.20
2019-03-04T18:34:31.685Z,5.20
2019-03-04T18:37:25.849Z,5.10
2019-03-04T18:40:46.954Z,5.10
2019-03-04T18:43:55.028Z,5.10
2019-03-04T18:46:40.454Z,5.00
2019-03-04T18:49:11.834Z,4.90
2019-03-04T18:51:42.139Z,4.90
2019-03-04T18:54:20.269Z,4.90
2019-03-04T18:56:50.679Z,5.00
2019-03-04T18:59:21.482Z,5.00
2019-03-04T19:01:52.016Z,4.90
2019-03-04T19:04:22.403Z,5.00
2019-03-04T19:06:52.755Z,5.00
2019-03-04T19:09:23.187Z,5.00
2019-03-04T19:11:53.536Z,5.10
2019-03-04T19:14:23.779Z,5.10
2019-03-04T19:16:54.126Z,5.10
2019-03-04T19:19:24.487Z,5.20
2019-03-04T19:21:54.945Z,5.20
2019-03-04T19:24:25.301Z,5.30
2019-03-04T19:26:55.597Z,5.30
2019-03-04T19:29:25.951Z,5.30
2019-03-04T19:31:56.643Z,5.30
2019-03-04T19:34:27.006Z,5.30
2019-03-04T19:36:57.460Z,5.40
2019-03-04T19:39:27.987Z,5.50
2019-03-04T19:41:58.518Z,5.60
2019-03-04T19:44:29.974Z,5.60
2019-03-04T19:47:00.404Z,5.70
2019-03-04T19:49:30.785Z,5.70
2019-03-04T19:52:01.244Z,5.60
2019-03-04T19:54:31.729Z,5.60
2019-03-04T19:57:02.329Z,5.60
2019-03-04T19:59:32.781Z,5.50
2019-03-04T20:02:03.343Z,5.40
2019-03-04T20:04:33.829Z,5.30
2019-03-04T20:07:04.707Z,5.30
2019-03-04T20:09:35.047Z,5.20
2019-03-04T20:12:05.723Z,5.10
2019-03-04T20:14:36.153Z,5.00
2019-03-04T20:17:06.659Z,4.90
2019-03-04T20:19:37.042Z,4.80
2019-03-04T20:22:07.906Z,4.80
2019-03-04T20:24:38.346Z,4.70
2019-03-04T20:27:08.782Z,4.70
2019-03-04T20:29:39.297Z,4.60
2019-03-04T20:32:09.782Z,4.50
2019-03-04T20:34:40.184Z,4.50
2019-03-04T20:37:10.939Z,4.50
2019-03-04T20:39:41.399Z,4.40
2019-03-04T20:42:11.922Z,4.40
2019-03-04T20:44:42.204Z,4.40
2019-03-04T20:47:12.645Z,4.30
2019-03-04T20:49:43.025Z,4.30
2019-03-04T20:52:13.342Z,4.20
2019-03-04T20:54:43.756Z,4.20
2019-03-04T20:57:14.091Z,4.20
2019-03-04T20:59:44.429Z,4.20
2019-03-04T21:03:41.048Z,4.10
2019-03-04T21:06:11.870Z,4.10
2019-03-04T21:08:42.266Z,4.10
2019-03-04T21:11:12.892Z,4.10
2019-03-04T21:13:43.362Z,4.10
2019-03-04T21:16:13.703Z,4.10
2019-03-04T21:18:44.096Z,4.10
2019-03-04T21:21:14.511Z,4.10
2019-03-04T21:23:49.812Z,4.10
2019-03-04T21:26:31.276Z,4.10
2019-03-04T21:30:18.605Z,4.10
2019-03-04T21:33:22.533Z,4.20
2019-03-04T21:36:33.511Z,4.20
2019-03-04T21:39:05.121Z,4.30
2019-03-04T21:41:47.857Z,4.30
2019-03-04T21:45:33.237Z,4.30
2019-03-04T21:48:33.359Z,4.30
2019-03-04T21:52:19.879Z,4.40
2019-03-04T21:54:42.102Z,4.40
2019-03-04T21:57:39.694Z,4.40
2019-03-04T22:00:17.244Z,4.40
2019-03-04T22:03:08.179Z,4.40
2019-03-04T22:05:49.503Z,4.40
2019-03-04T22:08:11.429Z,4.40
2019-03-04T22:10:41.866Z,4.40
2019-03-04T22:13:12.279Z,4.40
2019-03-04T22:15:42.680Z,4.30
2019-03-04T22:18:13.231Z,4.30
2019-03-04T22:20:43.736Z,4.30
2019-03-04T22:23:14.183Z,4.20
2019-03-04T22:25:46.117Z,4.20
2019-03-04T22:28:16.501Z,4.20
2019-03-04T22:30:46.872Z,4.20
2019-03-04T22:33:17.713Z,4.20
2019-03-04T22:35:48.205Z,4.20
2019-03-04T22:38:18.672Z,4.20
2019-03-04T22:40:49.137Z,4.20
2019-03-04T22:43:19.608Z,4.20
2019-03-04T22:45:49.983Z,4.30
2019-03-04T22:48:20.330Z,4.30
2019-03-04T22:50:50.790Z,4.30
2019-03-04T22:53:21.204Z,4.30
2019-03-04T22:55:51.591Z,4.20
2019-03-04T22:58:28.599Z,4.20
2019-03-04T23:01:33.785Z,4.10
2019-03-04T23:04:21.091Z,4.00
2019-03-04T23:07:20.321Z,3.90
2019-03-04T23:10:40.395Z,3.80
2019-03-04T23:14:11.571Z,3.90
2019-03-04T23:16:41.910Z,3.90
2019-03-04T23:19:12.296Z,4.00
2019-03-04T23:21:42.772Z,4.00
2019-03-04T23:24:22.000Z,4.10
2019-03-04T23:26:52.219Z,4.10
2019-03-04T23:29:22.458Z,4.10
2019-03-04T23:31:53.085Z,4.10
2019-03-04T23:34:23.348Z,4.10
2019-03-04T23:36:53.686Z,4.10
2019-03-04T23:39:24.116Z,4.10
2019-03-04T23:41:54.420Z,4.20
2019-03-04T23:44:24.821Z,4.20
2019-03-04T23:46:55.123Z,4.20
2019-03-04T23:49:26.492Z,4.30
2019-03-04T23:51:56.724Z,4.30
2019-03-04T23:54:26.869Z,4.30
2019-03-04T23:56:57.079Z,4.20
2019-03-04T23:59:27.488Z,4.10
